Airfield :
LOGIN :

Register | Disclaimer

   EN    FR    IT 

 










Legend :    VFR   Marginal VFR   IFR   Intensive IFR   Very Intensive IFR
Visi :
Ceiling :
>= 8 km
>= 3000ft
5 to 8 km
1000 to 3000 ft
1500m to 5 km
500 to 1000 ft
800 to 1500m
200 to 500 ft
< 800m
< 200 ft
Symbols :   Thunderstorms  Fog  Heavy snow  Heavy precipitations  Wind > 20 kt
SIGMETs :     Misc.  Thunderstorms  Icing  Turbulence  Mountain Waves  Volcanic Ashes






- Airport Elevation : 359 ft
- IATA code : BVA


LFOB - Beauvais

CURRENT METAR :
  • 170430Z AUTO 00000KT 9000 FEW008 OVC033 04/04 Q1009 TEMPO 0200 FG VV///

EXPIRED METARs :
  • 170400Z AUTO 00000KT 8000 OVC032 04/04 Q1009 TEMPO 0200 FG VV///
  • 170330Z AUTO 14001KT 9000 OVC032 04/04 Q1009 TEMPO 0200 FG VV///
  • 170300Z AUTO 08003KT 9000 OVC032 04/04 Q1009 TEMPO 0300 FG VV///
  • 170230Z AUTO 04003KT 8000 OVC033 04/04 Q1009 TEMPO 0300 FG VV///
  • 170200Z AUTO 04003KT 8000 OVC033 04/04 Q1009 TEMPO 0300 FG VV///
  • 170130Z AUTO 05002KT 8000 OVC032 04/03 Q1009 TEMPO 0300 FG VV///

TAF AMD TAF LFOB
Valid from the 17 at 03:00 until the 18 at 00:00 UTC


170308Z 1703/1724 VRB03KT 8000 BKN035
TEMPO 1704/1709 2000 BR
PROB30
TEMPO 1704/1709 0200 FG VV///
BECMG 1717/1720 3000 BR BKN003
ATIS : +33 3 44 11 49 28



MET'MAP, your aeronautical weather chart ! - Copyright ORBIFLY December 2007 - Disclaimer

ORBIFLY MET'MAP TEAM :

Programming & Development : Alexandra Zaïnal
Concept & Development : Baudouin d'Aumeries
Co-Development & Prog : Marc-Olivier Méhu
Technical & hardware support : Manuel Goepfert

Contact : metmap@orbifly.com




SOURCES & CREDITS :

   NOAA